createdAt,value
2022-11-06T00:04:04.527Z,7.95
2022-11-06T00:09:08.572Z,8.08
2022-11-06T00:14:10.634Z,8.03
2022-11-06T00:19:12.893Z,8.05
2022-11-06T00:24:14.941Z,7.96
2022-11-06T00:29:16.483Z,7.94
2022-11-06T00:34:18.004Z,7.89
2022-11-06T00:39:19.480Z,7.86
2022-11-06T00:44:20.967Z,7.83
2022-11-06T00:49:22.526Z,7.69
2022-11-06T00:54:24.012Z,7.53
2022-11-06T00:59:25.521Z,7.52
2022-11-06T01:04:27.165Z,7.66
2022-11-06T01:09:28.710Z,7.63
2022-11-06T01:14:30.506Z,7.65
2022-11-06T01:19:32.026Z,7.58
2022-11-06T01:24:33.565Z,7.32
2022-11-06T01:29:35.183Z,7.12
2022-11-06T01:34:36.718Z,7.03
2022-11-06T01:39:38.256Z,7.01
2022-11-06T01:44:42.482Z,7.04
2022-11-06T01:49:44.681Z,7.09
2022-11-06T01:54:50.998Z,7.23
2022-11-06T01:59:54.491Z,7.35
2022-11-06T02:04:56.020Z,7.38
2022-11-06T02:09:57.525Z,7.51
2022-11-06T02:15:02.086Z,7.55
2022-11-06T02:20:22.000Z,7.59
2022-11-06T02:25:46.186Z,7.54
2022-11-06T02:30:49.814Z,7.65
2022-11-06T02:35:56.865Z,7.73
2022-11-06T02:41:03.615Z,7.76
2022-11-06T02:46:25.274Z,7.75
2022-11-06T02:51:30.468Z,7.82
2022-11-06T02:56:38.659Z,7.79
2022-11-06T03:01:48.381Z,7.74
2022-11-06T03:06:59.735Z,7.76
2022-11-06T03:12:11.159Z,7.67
2022-11-06T03:17:20.638Z,7.69
2022-11-06T03:22:42.621Z,7.76
2022-11-06T03:28:30.544Z,7.72
2022-11-06T03:33:58.378Z,7.83
2022-11-06T03:39:05.365Z,7.73
2022-11-06T03:44:10.302Z,7.63
2022-11-06T03:49:19.246Z,7.50
2022-11-06T03:54:26.178Z,7.52
2022-11-06T03:59:33.930Z,7.58
2022-11-06T04:04:41.773Z,7.63
2022-11-06T04:09:49.175Z,7.61
2022-11-06T04:14:54.655Z,7.62
2022-11-06T04:20:00.523Z,7.48
2022-11-06T04:25:20.378Z,7.45
2022-11-06T04:30:21.967Z,7.50
2022-11-06T04:35:43.662Z,7.57
2022-11-06T04:41:01.821Z,7.61
2022-11-06T04:46:06.447Z,7.60
2022-11-06T04:51:10.258Z,7.54
2022-11-06T04:56:16.434Z,7.64
2022-11-06T05:01:20.510Z,7.66
2022-11-06T05:06:27.047Z,7.74
2022-11-06T05:11:31.391Z,7.62
2022-11-06T05:16:32.894Z,7.54
2022-11-06T05:21:34.378Z,7.54
2022-11-06T05:26:35.901Z,7.59
2022-11-06T05:31:37.504Z,7.65
2022-11-06T05:36:39.013Z,7.63
2022-11-06T05:41:40.485Z,7.54
2022-11-06T05:46:48.744Z,7.56
2022-11-06T05:51:50.977Z,7.57
2022-11-06T05:56:52.452Z,7.63
2022-11-06T06:01:54.090Z,7.65
2022-11-06T06:06:55.715Z,7.37
2022-11-06T06:11:57.215Z,7.19
2022-11-06T06:16:58.721Z,7.22
2022-11-06T06:22:00.189Z,7.29
2022-11-06T06:27:01.959Z,7.35
2022-11-06T06:32:04.360Z,7.29
2022-11-06T06:37:05.857Z,7.51
2022-11-06T06:42:07.386Z,7.59
2022-11-06T06:47:08.980Z,7.65
2022-11-06T06:52:11.540Z,7.49
2022-11-06T06:57:13.078Z,7.65
2022-11-06T07:02:14.725Z,7.63
2022-11-06T07:07:16.335Z,7.56
2022-11-06T07:12:17.832Z,7.80
2022-11-06T07:17:19.363Z,8.02
2022-11-06T07:22:29.593Z,8.30
2022-11-06T07:27:33.934Z,8.58
2022-11-06T07:32:35.450Z,8.79
2022-11-06T07:37:36.960Z,9.07
2022-11-06T07:42:43.321Z,9.28
2022-11-06T07:47:50.663Z,9.60
2022-11-06T07:52:54.414Z,9.93
2022-11-06T07:57:56.081Z,10.15
2022-11-06T08:02:57.614Z,10.80
2022-11-06T08:07:59.096Z,11.28
2022-11-06T08:13:00.903Z,10.47
2022-11-06T08:18:02.464Z,10.53
2022-11-06T08:23:07.241Z,10.79
2022-11-06T08:28:09.607Z,11.53
2022-11-06T08:33:11.485Z,11.57
2022-11-06T08:38:13.367Z,11.87
2022-11-06T08:43:15.353Z,12.28
2022-11-06T08:48:17.185Z,12.49
2022-11-06T08:53:19.168Z,12.67
2022-11-06T08:58:20.811Z,12.85
2022-11-06T09:03:22.388Z,12.76
2022-11-06T09:08:24.044Z,12.74
2022-11-06T09:13:25.718Z,13.10
2022-11-06T09:18:27.332Z,12.89
2022-11-06T09:23:28.905Z,12.67
2022-11-06T09:28:30.433Z,12.77
2022-11-06T09:33:31.982Z,12.27
2022-11-06T09:38:33.506Z,11.75
2022-11-06T09:44:03.367Z,11.45
2022-11-06T09:49:08.412Z,11.80
2022-11-06T09:54:12.916Z,13.01
2022-11-06T09:59:19.097Z,12.93
2022-11-06T10:04:48.578Z,13.73
2022-11-06T10:09:50.247Z,14.12
2022-11-06T10:15:19.423Z,14.87
2022-11-06T10:20:34.864Z,13.53
2022-11-06T10:25:36.390Z,12.64
2022-11-06T10:30:51.636Z,12.44
2022-11-06T10:36:07.496Z,12.41
2022-11-06T10:41:26.129Z,12.59
2022-11-06T10:46:40.061Z,12.36
2022-11-06T10:51:44.346Z,12.31
2022-11-06T10:57:21.381Z,12.33
2022-11-06T11:02:33.902Z,12.20
2022-11-06T11:07:35.579Z,12.42
2022-11-06T11:12:37.450Z,12.57
2022-11-06T11:17:40.267Z,12.52
2022-11-06T11:22:41.914Z,12.56
2022-11-06T11:27:45.233Z,12.39
2022-11-06T11:32:46.793Z,12.54
2022-11-06T11:37:48.466Z,12.55
2022-11-06T11:42:50.024Z,12.93
2022-11-06T11:47:52.130Z,12.79
2022-11-06T11:53:18.867Z,12.87
2022-11-06T11:58:27.888Z,13.60
2022-11-06T12:03:38.671Z,14.20
2022-11-06T12:08:49.207Z,15.10
2022-11-06T12:14:21.886Z,15.13
2022-11-06T12:19:27.632Z,13.96
2022-11-06T12:25:03.793Z,13.85
2022-11-06T12:30:14.201Z,13.80
2022-11-06T12:35:30.677Z,14.38
2022-11-06T12:40:37.922Z,14.31
2022-11-06T12:46:07.563Z,14.14
2022-11-06T12:51:22.902Z,13.85
2022-11-06T12:56:39.040Z,13.79
2022-11-06T13:01:43.565Z,13.73
2022-11-06T13:07:20.446Z,14.05
2022-11-06T13:12:25.168Z,14.12
2022-11-06T13:18:00.202Z,13.66
2022-11-06T13:23:33.751Z,13.63
2022-11-06T13:28:44.067Z,13.47
2022-11-06T13:33:55.923Z,13.39
2022-11-06T13:39:07.700Z,13.51
2022-11-06T13:44:12.729Z,13.46
2022-11-06T13:49:24.956Z,13.46
2022-11-06T13:54:56.526Z,13.18
2022-11-06T14:00:21.275Z,12.80
2022-11-06T14:05:48.583Z,12.59
2022-11-06T14:11:01.103Z,12.58
2022-11-06T14:16:14.577Z,12.62
2022-11-06T14:21:37.956Z,12.49
2022-11-06T14:26:50.115Z,12.47
2022-11-06T14:32:09.933Z,12.43
2022-11-06T14:37:30.734Z,12.35
2022-11-06T14:42:37.964Z,12.39
2022-11-06T14:47:48.271Z,12.43
2022-11-06T14:52:54.155Z,12.59
2022-11-06T14:58:01.521Z,12.54
2022-11-06T15:03:06.439Z,12.36
2022-11-06T15:08:08.018Z,12.44
2022-11-06T15:13:18.904Z,12.33
2022-11-06T15:18:22.619Z,12.07
2022-11-06T15:23:30.797Z,11.51
2022-11-06T15:28:47.406Z,11.23
2022-11-06T15:34:02.995Z,10.88
2022-11-06T15:39:37.954Z,10.75
2022-11-06T15:44:44.835Z,10.69
2022-11-06T15:49:46.370Z,10.65
2022-11-06T15:54:56.851Z,10.62
2022-11-06T16:00:10.242Z,10.60
2022-11-06T16:05:11.903Z,10.69
2022-11-06T16:10:18.918Z,10.80
2022-11-06T16:15:42.293Z,10.71
2022-11-06T16:20:50.160Z,10.45
2022-11-06T16:26:04.335Z,10.74
2022-11-06T16:31:11.614Z,10.71
2022-11-06T16:36:14.428Z,10.85
2022-11-06T16:41:18.058Z,10.77
2022-11-06T16:46:19.673Z,10.76
2022-11-06T16:51:32.331Z,10.66
2022-11-06T16:56:35.082Z,10.56
2022-11-06T17:01:43.011Z,10.60
2022-11-06T17:06:45.008Z,10.64
2022-11-06T17:11:46.599Z,10.57
2022-11-06T17:16:59.351Z,10.47
2022-11-06T17:22:00.869Z,10.44
2022-11-06T17:27:02.484Z,10.51
2022-11-06T17:32:04.659Z,10.53
2022-11-06T17:37:06.363Z,10.49
2022-11-06T17:42:07.889Z,10.43
2022-11-06T17:47:09.551Z,10.39
2022-11-06T17:52:11.178Z,10.48
2022-11-06T17:57:16.475Z,10.53
2022-11-06T18:02:35.227Z,10.49
2022-11-06T18:07:42.966Z,10.58
2022-11-06T18:12:44.487Z,10.62
2022-11-06T18:17:46.075Z,10.69
2022-11-06T18:22:47.646Z,10.73
2022-11-06T18:27:49.225Z,10.76
2022-11-06T18:32:50.765Z,10.69
2022-11-06T18:37:52.395Z,10.71
2022-11-06T18:42:54.183Z,10.80
2022-11-06T18:47:55.990Z,10.74
2022-11-06T18:52:58.561Z,10.66
2022-11-06T18:58:00.343Z,10.63
2022-11-06T19:03:01.934Z,10.62
2022-11-06T19:08:03.589Z,10.60
2022-11-06T19:13:05.230Z,10.60
2022-11-06T19:18:06.850Z,10.64
2022-11-06T19:23:12.603Z,10.69
2022-11-06T19:28:14.448Z,10.80
2022-11-06T19:33:16.689Z,11.29
2022-11-06T19:38:19.603Z,11.34
2022-11-06T19:43:21.157Z,11.41
2022-11-06T19:48:23.183Z,11.51
2022-11-06T19:53:25.217Z,11.44
2022-11-06T19:58:26.798Z,11.46
2022-11-06T20:03:28.307Z,11.47
2022-11-06T20:08:29.897Z,11.59
2022-11-06T20:13:31.633Z,11.61
2022-11-06T20:18:33.780Z,11.53
2022-11-06T20:23:36.301Z,11.42
2022-11-06T20:28:38.008Z,11.54
2022-11-06T20:33:39.810Z,11.55
2022-11-06T20:38:41.939Z,11.51
2022-11-06T20:43:43.855Z,11.51
2022-11-06T20:48:46.020Z,11.66
2022-11-06T20:53:48.249Z,11.59
2022-11-06T20:58:49.842Z,11.66
2022-11-06T21:03:51.868Z,11.67
2022-11-06T21:08:53.986Z,11.73
2022-11-06T21:13:56.091Z,11.80
2022-11-06T21:18:59.559Z,11.66
2022-11-06T21:24:02.128Z,11.65
2022-11-06T21:29:06.473Z,11.65
2022-11-06T21:34:08.050Z,11.90
2022-11-06T21:39:15.146Z,11.80
2022-11-06T21:44:18.014Z,11.74
2022-11-06T21:49:19.605Z,11.87
2022-11-06T21:54:21.254Z,11.98
2022-11-06T21:59:25.902Z,11.97
2022-11-06T22:04:27.573Z,11.94
2022-11-06T22:09:29.148Z,11.98
2022-11-06T22:14:30.785Z,11.87
2022-11-06T22:19:32.344Z,11.88
2022-11-06T22:24:33.879Z,11.95
2022-11-06T22:29:35.436Z,11.89
2022-11-06T22:34:37.194Z,11.88
2022-11-06T22:39:38.847Z,11.91
2022-11-06T22:44:40.557Z,11.82
2022-11-06T22:49:42.402Z,11.57
2022-11-06T22:54:43.925Z,11.44
2022-11-06T22:59:45.542Z,11.28
2022-11-06T23:04:47.108Z,10.90
2022-11-06T23:09:48.659Z,11.03
2022-11-06T23:14:50.206Z,11.42
2022-11-06T23:19:51.871Z,11.66
2022-11-06T23:24:53.420Z,11.76
2022-11-06T23:29:54.919Z,11.82
2022-11-06T23:34:56.962Z,11.82
2022-11-06T23:39:58.590Z,11.75
2022-11-06T23:45:00.471Z,11.68
2022-11-06T23:50:03.296Z,11.39
2022-11-06T23:55:05.378Z,11.17
